Circle Park, Indiana
Current Conditions -  °F | °C
As of 2:35 PM on Thursday 23 Oct 2014 (Local Time) from KANQ Reporting Station
NA  
Wind Chill: 57°   Ceiling: NA
Heat Index: 57°   Visibility: NA
Dew Point: 39°   Wind: 6mph
Humidity: 51%   Direction: 200°SSW
Pressure: 30.17"   Gusts: NA
Location:  41.5557°N, 84.8806°W
Report Text: KANQ 231835Z AUTO 20005KT 14/04 A3017 RMK
Loading
Personal Weather Stations






























Interactive Weather Map
Tropical Storm Tracking
New forecast layout! Learn more

10-Day Weather Forecast

Advertisements
Track Severe Weather on mobile